Time;durP1;ratioP1;P1;durP2;ratioP2;P2;SDS_P1;SDS_P2;PMS_P1;PMS_P2;Temp;Humidity;BMP_temperature;BMP_pressure;BME280_temperature;BME280_humidity;BME280_pressure;Samples;Min_cycle;Max_cycle;Signal;HPM_P1;HPM_P2
2023/09/04 00:02:00;;;;;;;6.93;3.72;;;14.50;99.90;;;;;;5037837;28;20032;-54
2023/09/04 00:04:26;;;;;;;6.82;3.30;;;14.50;99.90;;;;;;5037724;28;20036;-51
2023/09/04 00:06:51;;;;;;;8.20;3.80;;;14.40;99.90;;;;;;5038461;28;20454;-53
2023/09/04 00:09:17;;;;;;;6.70;3.30;;;14.40;99.90;;;;;;5038084;28;20074;-51
2023/09/04 00:11:43;;;;;;;6.45;3.15;;;14.40;99.90;;;;;;5037640;28;20044;-52
2023/09/04 00:14:08;;;;;;;6.22;2.90;;;14.40;99.90;;;;;;5037983;28;20029;-53
2023/09/04 00:16:34;;;;;;;8.23;3.38;;;14.30;99.90;;;;;;5037370;28;20522;-55
2023/09/04 00:19:00;;;;;;;7.45;3.67;;;14.30;99.90;;;;;;5036790;28;20036;-52
2023/09/04 00:21:26;;;;;;;7.32;3.50;;;14.20;99.90;;;;;;5036341;28;20029;-54
2023/09/04 00:23:51;;;;;;;6.45;3.30;;;14.10;99.90;;;;;;5036568;28;20026;-54
2023/09/04 00:26:17;;;;;;;5.30;3.33;;;14.20;99.90;;;;;;5035414;28;20108;-53
2023/09/04 00:28:45;;;;;;;7.22;3.15;;;14.10;99.90;;;;;;5035833;28;20052;-55
2023/09/04 00:31:10;;;;;;;8.50;3.63;;;14.10;99.90;;;;;;5035659;28;20033;-55
2023/09/04 00:33:36;;;;;;;6.05;3.35;;;14.00;99.90;;;;;;5016786;28;20083;-55
2023/09/04 00:36:02;;;;;;;5.78;3.20;;;14.00;99.90;;;;;;5035991;28;20036;-54
2023/09/04 00:38:28;;;;;;;5.60;2.95;;;13.90;99.90;;;;;;5035945;28;20029;-53
2023/09/04 00:40:54;;;;;;;5.22;3.20;;;13.90;99.90;;;;;;5037488;28;20033;-54
2023/09/04 00:43:19;;;;;;;6.97;3.50;;;13.80;99.90;;;;;;5019403;28;20121;-56
2023/09/04 00:45:46;;;;;;;5.82;3.47;;;13.70;99.90;;;;;;5037061;28;20017;-55
2023/09/04 00:48:12;;;;;;;6.78;3.15;;;13.70;99.90;;;;;;5036583;28;20029;-54
2023/09/04 00:50:39;;;;;;;4.80;3.10;;;13.60;99.90;;;;;;5036338;28;20390;-52
2023/09/04 00:53:08;;;;;;;6.43;3.05;;;13.60;99.90;;;;;;5037436;28;20034;-52
2023/09/04 00:55:34;;;;;;;7.55;3.60;;;13.60;99.90;;;;;;5035669;28;20041;-52
2023/09/04 00:58:00;;;;;;;5.25;2.90;;;13.60;99.90;;;;;;5037303;28;20076;-55
2023/09/04 01:00:27;;;;;;;5.00;2.90;;;13.50;99.90;;;;;;5036167;28;20035;-51
2023/09/04 01:02:54;;;;;;;6.68;3.25;;;13.50;99.90;;;;;;5019057;28;20049;-54
2023/09/04 01:05:20;;;;;;;6.40;3.42;;;13.50;99.90;;;;;;5036526;28;20090;-53
2023/09/04 01:07:46;;;;;;;7.18;3.08;;;13.40;99.90;;;;;;5037157;28;20022;-53
2023/09/04 01:10:13;;;;;;;5.97;3.20;;;13.40;99.90;;;;;;5035914;28;20063;-54
2023/09/04 01:12:53;;;;;;;6.53;3.40;;;13.30;99.90;;;;;;5036764;28;20537;-51
2023/09/04 01:15:19;;;;;;;8.68;3.65;;;13.30;99.90;;;;;;5037611;28;20065;-52
2023/09/04 01:17:45;;;;;;;7.03;3.30;;;13.40;99.90;;;;;;5019368;28;20083;-50
2023/09/04 01:20:29;;;;;;;7.22;3.50;;;13.30;99.90;;;;;;5036768;28;20026;-54
2023/09/04 01:22:56;;;;;;;7.28;3.00;;;13.30;99.90;;;;;;5035454;28;20033;-53
2023/09/04 01:25:41;;;;;;;5.72;3.13;;;13.20;99.90;;;;;;5036990;28;20036;-53
2023/09/04 01:28:18;;;;;;;6.88;3.25;;;13.20;99.90;;;;;;5018952;28;20037;-52
2023/09/04 01:30:55;;;;;;;5.40;2.80;;;13.20;99.90;;;;;;5036714;28;20030;-54
2023/09/04 01:33:28;;;;;;;6.10;3.13;;;13.20;99.90;;;;;;5034933;28;20037;-55
2023/09/04 01:35:55;;;;;;;8.57;3.20;;;13.10;99.90;;;;;;5035178;28;20033;-54
2023/09/04 01:38:21;;;;;;;7.40;3.47;;;13.10;99.90;;;;;;5036941;28;20042;-54
2023/09/04 01:40:51;;;;;;;5.65;3.03;;;13.10;99.90;;;;;;5018490;28;20055;-51
2023/09/04 01:43:17;;;;;;;;;;;13.20;99.90;;;;;;5018928;28;20278;-51
2023/09/04 01:45:43;;;;;;;7.60;3.47;;;13.20;99.90;;;;;;5041677;28;19909;-50
2023/09/04 01:48:09;;;;;;;9.43;3.58;;;13.20;99.90;;;;;;5044810;28;20314;-50
2023/09/04 01:50:34;;;;;;;6.03;3.13;;;13.20;99.90;;;;;;5021563;28;20386;-52
2023/09/04 01:53:00;;;;;;;7.97;3.95;;;13.30;99.90;;;;;;5021927;28;20041;-49
2023/09/04 01:55:25;;;;;;;8.73;3.72;;;13.30;99.90;;;;;;5022049;28;20065;-52
2023/09/04 01:57:51;;;;;;;7.28;3.60;;;13.20;99.90;;;;;;5021100;28;20022;-49
2023/09/04 02:00:17;;;;;;;7.85;4.30;;;13.20;99.90;;;;;;5020752;28;20108;-49
2023/09/04 02:02:43;;;;;;;6.38;3.65;;;13.30;99.90;;;;;;5038943;28;20045;-49
2023/09/04 02:05:08;;;;;;;6.65;3.78;;;13.30;99.90;;;;;;5021040;28;20486;-50
2023/09/04 02:07:34;;;;;;;6.22;3.83;;;13.30;99.90;;;;;;5020921;28;20056;-49
2023/09/04 02:10:00;;;;;;;7.88;3.90;;;13.30;99.90;;;;;;5019446;28;20056;-52
2023/09/04 02:12:25;;;;;;;6.95;3.75;;;13.30;99.90;;;;;;5018522;28;20033;-53
2023/09/04 02:14:52;;;;;;;6.93;3.72;;;13.30;99.90;;;;;;5036206;28;20026;-52
2023/09/04 02:17:17;;;;;;;6.28;3.60;;;13.40;99.90;;;;;;5017532;28;20036;-51
2023/09/04 02:19:43;;;;;;;9.52;4.00;;;13.40;99.90;;;;;;5018808;28;20092;-49
2023/09/04 02:22:08;;;;;;;9.43;4.40;;;13.30;99.90;;;;;;5019362;28;20116;-53
2023/09/04 02:24:34;;;;;;;7.22;4.00;;;13.30;99.90;;;;;;5037575;28;20030;-51
2023/09/04 02:27:00;;;;;;;6.97;3.92;;;13.40;99.90;;;;;;5037382;28;20401;-51
2023/09/04 02:29:27;;;;;;;6.95;4.07;;;13.40;99.90;;;;;;5037329;28;20029;-50
2023/09/04 02:31:54;;;;;;;7.72;4.20;;;13.40;99.90;;;;;;5036845;28;20032;-54
2023/09/04 02:34:19;;;;;;;8.68;4.13;;;13.40;99.90;;;;;;5037626;28;20104;-54
2023/09/04 02:36:45;;;;;;;6.00;3.88;;;13.40;99.90;;;;;;5037624;28;20032;-50
2023/09/04 02:39:11;;;;;;;9.43;4.57;;;13.40;99.90;;;;;;5037356;28;20044;-50
2023/09/04 02:41:37;;;;;;;7.72;4.53;;;13.40;99.90;;;;;;5036983;28;20075;-51
2023/09/04 02:44:03;;;;;;;7.45;3.90;;;13.40;99.90;;;;;;5037252;28;20033;-50
2023/09/04 02:46:32;;;;;;;7.70;4.35;;;13.30;99.90;;;;;;5019688;28;20095;-50
2023/09/04 02:48:58;;;;;;;9.30;3.97;;;13.30;99.90;;;;;;5037416;28;20061;-50
2023/09/04 02:51:24;;;;;;;8.57;4.20;;;13.30;99.90;;;;;;5036775;28;20033;-53
2023/09/04 02:53:49;;;;;;;8.27;4.18;;;13.30;99.90;;;;;;5036912;28;20032;-51
2023/09/04 02:56:15;;;;;;;7.05;3.95;;;13.30;99.90;;;;;;5035532;28;20034;-51
2023/09/04 02:58:42;;;;;;;8.13;4.15;;;13.20;99.90;;;;;;5036411;28;20052;-51
2023/09/04 03:01:08;;;;;;;7.57;4.38;;;13.30;99.90;;;;;;5034950;28;20033;-52
2023/09/04 03:03:34;;;;;;;7.03;4.22;;;13.30;99.90;;;;;;5018762;28;20486;-50
2023/09/04 03:06:10;;;;;;;8.00;4.40;;;13.20;99.90;;;;;;5036643;28;20048;-52
2023/09/04 03:08:35;;;;;;;9.80;4.40;;;13.20;99.90;;;;;;5036490;28;20025;-51
2023/09/04 03:11:01;;;;;;;7.72;4.30;;;13.20;99.90;;;;;;5018208;28;20173;-53
2023/09/04 03:13:27;;;;;;;8.98;4.20;;;13.20;99.90;;;;;;5018611;28;20120;-49
2023/09/04 03:15:54;;;;;;;8.15;4.32;;;13.20;99.90;;;;;;5019040;28;20478;-53
2023/09/04 03:18:19;;;;;;;8.18;4.22;;;13.30;99.90;;;;;;5018576;28;20030;-49
2023/09/04 03:20:47;;;;;;;9.18;4.30;;;13.30;99.90;;;;;;5019247;28;20107;-51
2023/09/04 03:23:13;;;;;;;6.93;4.10;;;13.20;99.90;;;;;;5018885;28;20037;-49
2023/09/04 03:25:39;;;;;;;7.13;4.18;;;13.20;99.90;;;;;;5036747;28;20057;-50
2023/09/04 03:28:06;;;;;;;7.20;3.80;;;13.20;99.90;;;;;;5018580;28;20053;-51
2023/09/04 03:30:34;;;;;;;9.38;4.00;;;13.20;99.90;;;;;;5002955;28;20029;-52
2023/09/04 03:32:59;;;;;;;8.50;4.47;;;13.20;99.90;;;;;;5021616;28;20029;-52
2023/09/04 03:35:25;;;;;;;7.22;4.22;;;13.20;99.90;;;;;;5021810;28;20037;-52
2023/09/04 03:37:51;;;;;;;9.38;4.22;;;13.20;99.90;;;;;;5022243;28;20037;-51
2023/09/04 03:40:24;;;;;;;8.73;4.10;;;13.10;99.90;;;;;;5021351;28;20026;-51
2023/09/04 03:42:53;;;;;;;7.30;3.80;;;13.10;99.90;;;;;;5021690;28;20029;-51
2023/09/04 03:45:19;;;;;;;7.40;4.10;;;13.10;99.90;;;;;;5022100;28;20037;-52
2023/09/04 03:47:46;;;;;;;8.00;4.30;;;13.10;99.90;;;;;;5039845;28;20387;-52
2023/09/04 03:50:12;;;;;;;7.22;3.97;;;13.10;99.90;;;;;;5022521;28;20099;-49
2023/09/04 03:52:39;;;;;;;10.10;4.22;;;13.10;99.90;;;;;;5040192;28;20417;-51
2023/09/04 03:55:10;;;;;;;7.03;3.97;;;13.10;99.90;;;;;;5038305;28;20036;-52
2023/09/04 03:57:36;;;;;;;9.88;4.72;;;13.00;99.90;;;;;;5022432;28;20470;-49
2023/09/04 04:00:14;;;;;;;8.35;4.38;;;13.00;99.90;;;;;;5037830;28;20041;-53
2023/09/04 04:02:40;;;;;;;7.82;4.35;;;13.00;99.90;;;;;;5039897;28;20068;-53
2023/09/04 04:05:09;;;;;;;9.77;4.10;;;12.90;99.90;;;;;;5038701;28;20033;-49
2023/09/04 04:07:35;;;;;;;7.53;4.20;;;12.90;99.90;;;;;;5021724;28;20029;-50
2023/09/04 04:10:01;;;;;;;6.90;3.83;;;12.90;99.90;;;;;;5021170;28;20115;-52
2023/09/04 04:12:27;;;;;;;8.13;4.10;;;12.90;99.90;;;;;;5038300;28;20065;-52
2023/09/04 04:14:57;;;;;;;7.68;4.22;;;12.90;99.90;;;;;;5020721;28;20501;-50
2023/09/04 04:17:24;;;;;;;8.25;3.65;;;12.80;99.90;;;;;;5038440;28;20037;-50
2023/09/04 04:19:53;;;;;;;6.70;3.85;;;12.80;99.90;;;;;;5038627;28;20033;-49
2023/09/04 04:22:22;;;;;;;;;;;12.80;99.90;;;;;;5021714;28;20052;-51
2023/09/04 04:24:48;;;;;;;6.75;3.90;;;12.80;99.90;;;;;;5038320;28;19916;-52
2023/09/04 04:27:17;;;;;;;7.80;4.30;;;12.80;99.90;;;;;;5020947;28;20037;-53
2023/09/04 04:29:48;;;;;;;8.55;4.20;;;12.70;99.90;;;;;;5004083;28;20029;-49
2023/09/04 04:32:14;;;;;;;9.52;4.13;;;12.80;99.90;;;;;;5036889;28;20324;-51
2023/09/04 04:34:41;;;;;;;6.93;3.83;;;12.70;99.90;;;;;;5037037;28;20474;-50
2023/09/04 04:37:09;;;;;;;;;;;12.70;99.90;;;;;;5021149;28;20037;-52
2023/09/04 04:39:37;;;;;;;8.23;3.92;;;12.80;99.90;;;;;;5020918;28;19909;-51
2023/09/04 04:42:02;;;;;;;6.70;3.65;;;12.80;99.90;;;;;;5019886;28;20068;-52
2023/09/04 04:44:29;;;;;;;8.05;4.00;;;12.80;99.90;;;;;;5019927;28;20094;-56
2023/09/04 04:46:55;;;;;;;7.57;4.00;;;12.80;99.90;;;;;;5020113;28;20037;-54
2023/09/04 04:49:22;;;;;;;7.32;4.20;;;12.80;99.90;;;;;;5020427;28;20040;-50
2023/09/04 04:51:49;;;;;;;6.78;4.13;;;12.80;99.90;;;;;;5037358;28;20025;-53
2023/09/04 04:54:16;;;;;;;7.20;4.30;;;12.80;99.90;;;;;;5019854;28;20106;-52
2023/09/04 04:56:42;;;;;;;8.25;4.38;;;12.70;99.90;;;;;;5020553;28;20029;-50
2023/09/04 04:59:08;;;;;;;8.65;4.45;;;12.70;99.90;;;;;;5037294;28;20085;-53
2023/09/04 05:01:34;;;;;;;7.03;4.00;;;12.80;99.90;;;;;;5036948;28;20056;-53
2023/09/04 05:04:01;;;;;;;9.55;3.90;;;12.80;99.90;;;;;;5036346;28;20025;-53
2023/09/04 05:06:26;;;;;;;7.40;3.83;;;12.80;99.90;;;;;;5037511;28;20025;-52
2023/09/04 05:08:52;;;;;;;6.85;3.80;;;12.80;99.90;;;;;;5019946;28;20028;-53
2023/09/04 05:11:18;;;;;;;8.10;4.03;;;12.80;99.90;;;;;;5019919;28;20060;-51
2023/09/04 05:13:44;;;;;;;7.00;3.97;;;12.80;99.90;;;;;;5019221;28;20030;-53
2023/09/04 05:16:10;;;;;;;7.90;4.20;;;12.80;99.90;;;;;;5018860;28;20172;-52
2023/09/04 05:18:38;;;;;;;6.32;3.60;;;12.80;99.90;;;;;;5018989;28;20021;-55
2023/09/04 05:21:06;;;;;;;7.75;4.10;;;12.80;99.90;;;;;;5018727;28;20052;-55
2023/09/04 05:23:32;;;;;;;9.80;3.90;;;12.80;99.90;;;;;;5034759;28;20030;-55
2023/09/04 05:25:59;;;;;;;6.45;3.90;;;12.80;99.90;;;;;;5035926;28;20037;-54
2023/09/04 05:28:24;;;;;;;6.80;4.10;;;12.80;99.90;;;;;;5019230;28;20375;-52
2023/09/04 05:30:50;;;;;;;8.23;4.07;;;12.90;99.90;;;;;;5036652;28;20486;-51
2023/09/04 05:33:16;;;;;;;8.32;4.60;;;12.90;99.90;;;;;;5035709;28;20041;-54
2023/09/04 05:35:42;;;;;;;8.50;3.72;;;12.90;99.90;;;;;;5036604;28;20037;-51
2023/09/04 05:38:08;;;;;;;6.63;3.67;;;13.00;99.90;;;;;;5035173;28;20193;-54
2023/09/04 05:40:33;;;;;;;7.15;4.30;;;13.00;99.90;;;;;;5036244;28;20038;-54
2023/09/04 05:42:59;;;;;;;7.63;4.50;;;13.00;99.90;;;;;;5035995;28;20073;-52
2023/09/04 05:45:25;;;;;;;7.68;3.63;;;13.00;99.90;;;;;;5036300;28;20080;-52
2023/09/04 05:47:51;;;;;;;7.35;3.63;;;13.00;99.90;;;;;;5036434;28;20044;-53
2023/09/04 05:50:16;;;;;;;7.35;4.10;;;13.10;99.90;;;;;;5036050;28;20421;-54
2023/09/04 05:52:42;;;;;;;7.97;4.18;;;13.10;99.90;;;;;;5035616;28;20063;-50
2023/09/04 05:55:08;;;;;;;9.88;4.60;;;13.20;99.90;;;;;;5035356;28;20457;-54
2023/09/04 05:57:35;;;;;;;7.43;4.35;;;13.30;99.90;;;;;;5035193;28;20037;-55
2023/09/04 06:00:01;;;;;;;7.93;4.15;;;13.50;99.90;;;;;;5034273;28;20034;-54
2023/09/04 06:02:27;;;;;;;6.45;3.83;;;13.50;99.90;;;;;;5035118;28;20052;-55
2023/09/04 06:04:53;;;;;;;8.73;4.32;;;13.60;99.90;;;;;;5034815;28;20466;-54
2023/09/04 06:07:19;;;;;;;7.13;3.50;;;13.70;99.90;;;;;;5035740;28;20109;-52
2023/09/04 06:09:44;;;;;;;8.32;3.80;;;13.80;99.90;;;;;;5036001;28;20478;-53
2023/09/04 06:12:11;;;;;;;7.53;3.60;;;13.80;99.90;;;;;;5035299;28;20482;-53
2023/09/04 06:14:38;;;;;;;12.30;3.85;;;13.90;99.90;;;;;;5034806;28;20104;-53
2023/09/04 06:17:03;;;;;;;9.05;4.50;;;13.90;99.90;;;;;;5035274;28;20026;-55
2023/09/04 06:19:30;;;;;;;8.52;3.88;;;13.90;99.90;;;;;;5034184;28;20040;-55
2023/09/04 06:21:56;;;;;;;5.90;3.35;;;14.00;99.90;;;;;;5035498;28;20022;-54
2023/09/04 06:24:22;;;;;;;9.75;4.60;;;14.10;99.90;;;;;;5035244;28;20080;-54
2023/09/04 06:26:48;;;;;;;9.98;3.78;;;14.10;99.90;;;;;;5035867;28;20025;-54
2023/09/04 06:29:16;;;;;;;6.65;3.90;;;14.20;99.90;;;;;;5035367;28;20218;-51
2023/09/04 06:31:41;;;;;;;7.28;3.97;;;14.30;99.90;;;;;;5035647;28;20044;-54
2023/09/04 06:34:07;;;;;;;6.45;3.60;;;14.40;99.90;;;;;;5035489;28;20034;-54
2023/09/04 06:36:33;;;;;;;7.05;3.60;;;14.60;99.90;;;;;;5017769;28;20041;-54
2023/09/04 06:38:58;;;;;;;6.82;3.45;;;14.70;99.90;;;;;;5035916;28;20057;-50
2023/09/04 06:41:24;;;;;;;7.95;4.10;;;14.80;99.90;;;;;;5035785;28;20030;-53
2023/09/04 06:43:50;;;;;;;7.70;3.90;;;14.90;99.90;;;;;;5019348;28;20099;-50
2023/09/04 06:46:15;;;;;;;7.95;3.70;;;15.10;99.90;;;;;;5036571;28;20025;-50
2023/09/04 06:48:41;;;;;;;5.20;3.50;;;15.20;99.90;;;;;;5037158;28;20506;-54
2023/09/04 06:51:07;;;;;;;7.13;3.33;;;15.30;99.90;;;;;;5002880;28;20486;-50
2023/09/04 06:53:33;;;;;;;7.97;3.78;;;15.40;99.90;;;;;;5036823;28;20028;-51
2023/09/04 06:55:58;;;;;;;7.10;3.33;;;15.60;99.90;;;;;;5036824;28;20033;-53
2023/09/04 06:58:26;;;;;;;6.05;3.05;;;15.70;99.90;;;;;;5036960;28;20323;-51
2023/09/04 07:00:55;;;;;;;6.88;2.88;;;15.90;99.90;;;;;;5036641;28;20030;-52
2023/09/04 07:03:21;;;;;;;;;;;16.00;99.90;;;;;;5036986;28;20111;-51
2023/09/04 07:05:47;;;;;;;5.18;2.53;;;16.20;99.90;;;;;;5038668;28;19909;-55
2023/09/04 07:08:12;;;;;;;5.18;2.70;;;16.30;99.90;;;;;;5040609;28;20029;-52
2023/09/04 07:10:38;;;;;;;7.35;3.47;;;16.50;99.90;;;;;;5021806;28;20075;-51
2023/09/04 07:13:04;;;;;;;4.53;2.20;;;16.70;99.90;;;;;;5040401;28;20037;-52
2023/09/04 07:15:29;;;;;;;5.22;2.33;;;16.80;99.90;;;;;;5040559;28;20029;-54
2023/09/04 07:17:58;;;;;;;5.32;2.30;;;17.00;99.90;;;;;;5039416;28;20032;-55
2023/09/04 07:20:23;;;;;;;3.00;1.70;;;17.10;99.90;;;;;;5038977;28;20394;-53
2023/09/04 07:22:49;;;;;;;11.40;5.45;;;17.30;99.90;;;;;;5020773;28;20040;-54
2023/09/04 07:25:15;;;;;;;7.40;4.05;;;17.40;99.90;;;;;;5038901;28;20068;-54
2023/09/04 07:27:40;;;;;;;11.52;4.35;;;17.40;99.90;;;;;;5038756;28;20029;-56
2023/09/04 07:30:06;;;;;;;5.40;2.58;;;17.50;99.90;;;;;;5038870;28;20044;-55
2023/09/04 07:32:32;;;;;;;4.68;2.55;;;17.60;99.90;;;;;;5038405;28;20394;-53
2023/09/04 07:34:58;;;;;;;3.50;2.22;;;17.60;99.90;;;;;;5020894;28;20033;-53
2023/09/04 07:37:25;;;;;;;9.27;3.25;;;17.70;99.90;;;;;;5038663;28;20029;-53
2023/09/04 07:39:52;;;;;;;5.97;2.90;;;17.80;99.90;;;;;;5038507;28;20486;-55
2023/09/04 07:42:18;;;;;;;5.60;3.00;;;17.80;99.90;;;;;;5038108;28;20482;-55
2023/09/04 07:44:43;;;;;;;12.30;4.22;;;17.90;99.90;;;;;;5038716;28;20033;-53
2023/09/04 07:47:09;;;;;;;5.90;3.05;;;18.00;99.90;;;;;;5038694;28;20033;-56
2023/09/04 07:49:34;;;;;;;4.47;2.00;;;18.20;99.90;;;;;;5038078;28;20028;-55
2023/09/04 07:52:00;;;;;;;4.40;1.95;;;18.30;99.90;;;;;;5037625;28;20057;-56
2023/09/04 07:54:26;;;;;;;4.00;2.10;;;18.40;99.90;;;;;;5038268;28;20090;-54
2023/09/04 07:56:52;;;;;;;3.55;2.40;;;18.50;99.90;;;;;;5038583;28;20022;-56
2023/09/04 07:59:17;;;;;;;5.78;3.20;;;18.50;99.90;;;;;;5038447;28;20030;-56
2023/09/04 08:01:43;;;;;;;5.15;2.38;;;18.60;99.90;;;;;;5038066;28;20083;-55
2023/09/04 08:04:09;;;;;;;4.05;2.17;;;18.70;99.90;;;;;;5038177;28;20440;-54
2023/09/04 08:06:35;;;;;;;4.93;2.45;;;18.80;99.90;;;;;;5037899;28;20033;-54
2023/09/04 08:09:01;;;;;;;5.90;2.72;;;18.90;99.90;;;;;;5037819;28;20466;-55
2023/09/04 08:11:26;;;;;;;4.95;3.00;;;19.00;99.90;;;;;;5019985;28;20044;-52
2023/09/04 08:13:52;;;;;;;6.60;2.83;;;19.00;99.90;;;;;;5037904;28;20033;-52
2023/09/04 08:16:18;;;;;;;6.15;2.80;;;19.10;99.90;;;;;;5038140;28;20030;-53
2023/09/04 08:18:43;;;;;;;6.20;2.78;;;19.20;99.90;;;;;;5019511;28;20252;-52
2023/09/04 08:21:09;;;;;;;7.28;2.80;;;19.20;99.90;;;;;;5020703;28;20516;-54
2023/09/04 08:23:35;;;;;;;5.90;3.28;;;19.30;99.90;;;;;;5037554;28;20516;-53
2023/09/04 08:26:02;;;;;;;6.65;3.00;;;19.40;99.90;;;;;;5037510;28;20474;-53
2023/09/04 08:28:28;;;;;;;9.05;3.10;;;19.40;99.90;;;;;;5037951;28;20037;-54
2023/09/04 08:30:54;;;;;;;3.97;2.30;;;19.40;99.90;;;;;;5037289;28;20105;-54
2023/09/04 08:33:19;;;;;;;5.50;2.13;;;19.50;99.90;;;;;;5037097;28;20053;-51
2023/09/04 08:35:45;;;;;;;4.38;2.45;;;19.60;99.90;;;;;;5037688;28;20107;-55
2023/09/04 08:38:11;;;;;;;7.07;2.30;;;19.70;99.90;;;;;;5019973;28;20112;-53
2023/09/04 08:40:40;;;;;;;5.57;2.47;;;19.90;99.90;;;;;;5037626;28;20025;-55
2023/09/04 08:43:07;;;;;;;3.95;2.50;;;20.00;99.90;;;;;;5037340;28;20033;-54
2023/09/04 08:45:35;;;;;;;4.05;1.95;;;20.10;99.90;;;;;;5037410;28;20389;-54
2023/09/04 08:48:03;;;;;;;4.85;3.00;;;20.30;99.90;;;;;;5020010;28;20049;-54
2023/09/04 08:50:29;;;;;;;3.35;1.70;;;20.50;99.90;;;;;;5037430;28;20042;-54
2023/09/04 08:52:55;;;;;;;4.55;2.00;;;20.60;99.90;;;;;;5037114;28;20088;-52
2023/09/04 08:55:21;;;;;;;2.95;1.58;;;20.70;99.90;;;;;;5037300;28;20033;-51
2023/09/04 08:57:47;;;;;;;3.17;1.92;;;20.80;99.90;;;;;;5019582;28;20033;-54
2023/09/04 09:00:14;;;;;;;3.45;2.00;;;20.90;99.90;;;;;;5037363;28;20044;-54
2023/09/04 09:02:44;;;;;;;4.00;2.05;;;21.00;99.90;;;;;;5019201;28;20068;-53
2023/09/04 09:05:16;;;;;;;4.10;2.13;;;21.00;99.90;;;;;;5037380;28;20386;-51
2023/09/04 09:07:43;;;;;;;4.95;1.98;;;21.20;99.90;;;;;;5037256;28;20052;-54
2023/09/04 09:10:14;;;;;;;2.70;1.65;;;21.40;99.90;;;;;;5036696;28;20490;-54
2023/09/04 09:12:39;;;;;;;3.20;1.60;;;21.40;99.90;;;;;;5036810;28;20030;-54
2023/09/04 09:15:05;;;;;;;3.65;1.60;;;21.40;99.90;;;;;;5036865;28;20025;-54
2023/09/04 09:17:31;;;;;;;9.38;5.15;;;21.50;99.90;;;;;;5036495;28;20040;-53
2023/09/04 09:19:57;;;;;;;3.80;2.05;;;21.60;99.90;;;;;;5036165;28;20026;-54
2023/09/04 09:22:22;;;;;;;5.43;3.20;;;21.60;99.90;;;;;;5036150;28;20568;-54
2023/09/04 09:25:00;;;;;;;1.92;1.33;;;21.70;99.90;;;;;;5036914;28;20032;-53
2023/09/04 09:27:31;;;;;;;5.57;3.30;;;21.70;99.90;;;;;;5036247;28;20021;-54
2023/09/04 09:29:58;;;;;;;5.10;1.90;;;21.90;99.90;;;;;;5017743;28;20029;-51
2023/09/04 09:32:27;;;;;;;6.15;3.20;;;22.10;99.90;;;;;;5036489;28;20225;-54
2023/09/04 09:34:55;;;;;;;11.07;5.63;;;22.30;99.90;;;;;;5036164;28;20025;-49
2023/09/04 09:37:23;;;;;;;2.38;1.27;;;22.50;99.90;;;;;;5036042;28;20105;-52
2023/09/04 09:39:48;;;;;;;4.43;2.17;;;22.70;99.90;;;;;;5034793;28;20029;-53
2023/09/04 09:42:14;;;;;;;2.42;1.20;;;22.70;99.90;;;;;;5035958;28;20410;-51
2023/09/04 09:44:40;;;;;;;8.18;4.82;;;22.60;99.90;;;;;;5036281;28;20316;-52
2023/09/04 09:47:07;;;;;;;2.95;1.40;;;22.80;99.90;;;;;;5036484;28;20112;-53
2023/09/04 09:49:39;;;;;;;2.83;1.42;;;22.80;99.90;;;;;;5035885;28;20033;-54
2023/09/04 09:52:12;;;;;;;4.63;2.78;;;22.90;99.90;;;;;;5035364;28;20037;-53
2023/09/04 09:54:46;;;;;;;5.18;3.33;;;23.10;99.90;;;;;;5036386;28;20033;-51
2023/09/04 09:57:16;;;;;;;2.58;1.50;;;23.20;99.90;;;;;;5034258;28;20026;-52
2023/09/04 09:59:44;;;;;;;2.17;1.08;;;23.20;99.90;;;;;;5035464;28;20474;-53
2023/09/04 10:02:18;;;;;;;1.58;1.20;;;23.10;99.90;;;;;;5035583;28;20444;-54
2023/09/04 10:04:45;;;;;;;5.97;2.95;;;23.30;99.90;;;;;;5035599;28;20493;-54
2023/09/04 10:07:15;;;;;;;2.83;1.40;;;23.30;99.90;;;;;;5035952;28;20032;-53
2023/09/04 10:09:46;;;;;;;2.78;1.50;;;23.30;99.90;;;;;;5035552;28;20382;-53
2023/09/04 10:12:31;;;;;;;2.28;1.15;;;23.40;99.90;;;;;;5035774;28;20088;-54
2023/09/04 10:14:59;;;;;;;2.42;1.17;;;23.40;99.90;;;;;;5017991;28;20033;-56
2023/09/04 10:17:35;;;;;;;5.13;2.93;;;23.50;99.90;;;;;;5035262;28;20029;-54
2023/09/04 10:20:04;;;;;;;3.38;1.63;;;23.60;99.90;;;;;;5035547;28;20037;-51
2023/09/04 10:23:03;;;;;;;4.47;2.38;;;23.80;99.90;;;;;;5035469;28;20065;-53
2023/09/04 10:25:40;;;;;;;1.70;1.17;;;24.00;99.90;;;;;;5034884;28;20048;-52
2023/09/04 10:28:18;;;;;;;2.38;1.38;;;24.00;99.90;;;;;;5034950;28;20091;-54
2023/09/04 10:30:48;;;;;;;3.08;1.52;;;24.20;99.90;;;;;;5035738;28;20041;-55
2023/09/04 10:33:14;;;;;;;2.33;1.42;;;24.30;99.90;;;;;;5035173;28;20080;-54
2023/09/04 10:35:41;;;;;;;2.88;1.25;;;24.30;99.90;;;;;;5035539;28;20548;-54
2023/09/04 10:38:07;;;;;;;4.05;1.35;;;24.50;99.60;;;;;;5018265;28;20045;-53
2023/09/04 10:40:34;;;;;;;2.65;1.30;;;24.60;99.40;;;;;;5035687;28;20033;-55
2023/09/04 10:43:03;;;;;;;2.22;1.10;;;24.80;99.60;;;;;;5039391;28;20068;-51
2023/09/04 10:45:30;;;;;;;2.20;1.30;;;24.90;98.80;;;;;;5039932;28;20033;-54
2023/09/04 10:47:56;;;;;;;2.88;1.63;;;25.00;98.70;;;;;;5021320;28;20030;-52
2023/09/04 10:50:45;;;;;;;3.08;1.70;;;25.10;98.50;;;;;;5037848;28;20120;-53
2023/09/04 10:53:11;;;;;;;6.40;1.83;;;25.10;98.90;;;;;;5038665;28;20034;-56
2023/09/04 10:55:38;;;;;;;2.85;1.52;;;25.10;99.00;;;;;;5038899;28;20104;-56
2023/09/04 10:58:08;;;;;;;2.03;1.40;;;25.10;96.90;;;;;;5039527;28;20099;-52
2023/09/04 11:00:36;;;;;;;2.85;1.45;;;25.10;97.20;;;;;;5038745;28;20037;-56
2023/09/04 11:03:24;;;;;;;2.78;1.10;;;25.10;97.00;;;;;;5038848;28;20033;-53
2023/09/04 11:06:02;;;;;;;3.58;1.50;;;25.00;97.40;;;;;;5039323;28;20033;-55
2023/09/04 11:08:28;;;;;;;2.63;1.40;;;25.00;97.60;;;;;;5039315;28;20021;-52
2023/09/04 11:11:03;;;;;;;2.03;1.30;;;25.20;97.50;;;;;;5038652;28;20034;-55
2023/09/04 11:13:29;;;;;;;2.45;1.13;;;25.20;97.40;;;;;;5039070;28;20048;-55
2023/09/04 11:16:02;;;;;;;3.33;1.35;;;25.10;98.70;;;;;;5039488;28;20482;-55
2023/09/04 11:18:32;;;;;;;2.42;1.30;;;25.00;97.40;;;;;;5039043;28;20029;-56
2023/09/04 11:21:00;;;;;;;4.00;1.50;;;25.00;97.60;;;;;;5037750;28;20116;-54
2023/09/04 11:23:27;;;;;;;4.65;1.50;;;25.10;96.30;;;;;;5038770;28;20026;-54
2023/09/04 11:25:54;;;;;;;2.10;1.27;;;25.10;96.20;;;;;;5039335;28;20532;-53
2023/09/04 11:28:23;;;;;;;2.20;1.35;;;25.10;97.40;;;;;;5038432;28;20112;-55
2023/09/04 11:30:59;;;;;;;2.75;1.50;;;25.10;97.30;;;;;;5038863;28;20044;-56
2023/09/04 11:33:26;;;;;;;2.40;1.50;;;25.10;97.30;;;;;;5020899;28;20041;-56
2023/09/04 11:36:05;;;;;;;2.92;1.40;;;25.00;97.70;;;;;;5021313;28;20033;-56
2023/09/04 11:38:33;;;;;;;2.17;1.30;;;25.10;96.50;;;;;;5038772;28;20044;-55
2023/09/04 11:40:59;;;;;;;2.42;1.20;;;25.00;96.30;;;;;;5037220;28;20123;-52
2023/09/04 11:43:27;;;;;;;2.17;1.38;;;25.00;96.50;;;;;;5037806;28;20033;-56
2023/09/04 11:45:57;;;;;;;1.92;1.13;;;25.00;96.70;;;;;;5038167;28;20415;-52
2023/09/04 11:48:24;;;;;;;2.63;1.25;;;25.00;95.40;;;;;;5037916;28;20029;-52
2023/09/04 11:50:51;;;;;;;1.52;1.10;;;25.00;96.80;;;;;;5038419;28;20086;-53
2023/09/04 11:53:17;;;;;;;2.50;1.58;;;25.10;96.50;;;;;;5037107;28;20022;-55
2023/09/04 11:55:42;;;;;;;2.67;1.50;;;25.40;96.30;;;;;;5038421;28;20440;-54
2023/09/04 11:58:08;;;;;;;2.35;1.17;;;25.60;96.20;;;;;;5038205;28;20025;-56
2023/09/04 12:00:34;;;;;;;2.85;1.30;;;25.50;96.60;;;;;;5037884;28;20220;-55
2023/09/04 12:03:00;;;;;;;1.80;1.00;;;25.50;95.80;;;;;;5038215;28;20036;-54
2023/09/04 12:05:26;;;;;;;2.42;1.30;;;25.40;96.60;;;;;;5020595;28;20048;-55
2023/09/04 12:07:53;;;;;;;2.17;1.50;;;25.50;95.80;;;;;;5020483;28;20028;-56
2023/09/04 12:10:18;;;;;;;3.22;1.30;;;25.60;95.30;;;;;;5038052;28;20116;-56
2023/09/04 12:12:44;;;;;;;2.92;1.30;;;25.60;95.80;;;;;;5037552;28;20489;-53
2023/09/04 12:15:10;;;;;;;2.50;1.27;;;25.60;96.70;;;;;;5020634;28;20033;-52
2023/09/04 12:17:35;;;;;;;2.78;1.27;;;25.80;95.70;;;;;;5037861;28;20033;-53
2023/09/04 12:20:10;;;;;;;2.45;1.33;;;25.80;96.40;;;;;;5020213;28;20133;-51
2023/09/04 12:22:36;;;;;;;2.85;1.30;;;25.80;96.10;;;;;;5037212;28;20071;-55
2023/09/04 12:25:08;;;;;;;1.92;1.15;;;25.90;94.30;;;;;;5037934;28;20034;-53
2023/09/04 12:27:36;;;;;;;2.03;1.00;;;25.90;94.90;;;;;;5038503;28;20093;-52
2023/09/04 12:30:01;;;;;;;3.05;1.30;;;25.90;94.90;;;;;;5037630;28;20029;-54
2023/09/04 12:32:27;;;;;;;3.60;1.27;;;25.80;94.60;;;;;;5037162;28;20482;-54
2023/09/04 12:35:06;;;;;;;2.30;1.33;;;25.80;95.20;;;;;;5038117;28;20060;-52
2023/09/04 12:37:34;;;;;;;2.38;1.38;;;25.90;94.10;;;;;;5036018;28;20030;-52
2023/09/04 12:39:59;;;;;;;4.32;1.42;;;26.00;94.90;;;;;;5037702;28;20035;-50
2023/09/04 12:42:25;;;;;;;2.22;1.17;;;25.90;95.10;;;;;;5020155;28;20104;-51
2023/09/04 12:44:51;;;;;;;2.65;1.45;;;26.00;93.20;;;;;;5038154;28;20064;-54
2023/09/04 12:47:17;;;;;;;1.42;1.05;;;26.10;92.70;;;;;;5019333;28;20048;-51
2023/09/04 12:49:42;;;;;;;2.20;1.30;;;26.10;93.80;;;;;;5019691;28;20116;-51